Météo Nord-Pas-de-Calais   La météo au plus près de chez vous

Station météorologique

Observations météo à Quimper (29216)

29216001 82 m Dernier relevé à 20:18
21.1°C
Humidité 57 % Vent 12.6 km/h 1023.5 hPa

Journée consultée

Samedi 5 Septembre 2026

Synthèse de la journée

Périodes de référence en UTC

Température maximale

25.6°C

à 17:00

06h 06h

Température minimale

12.8°C

à 06:42

18h 18h

Rafale maximale

23 km/h

à 15:18

00h 00h

Précipitations

0 mm

Cumul quotidien

06h 06h

Ensoleillement

10h 36 mins

Durée quotidienne

00h 00h

Graphiques de la journée

Heure locale Réduire

Données détaillées

Relevés météo

Pas de 6 minutes Afficher les relevés infra-horaires
Relevés météo détaillés à Quimper pour le Samedi 5 Septembre 2026
Heure Température °C Point de rosée °C Humidité % Vent moyen (raf.), km/h Précipitations mm Température à 10 cm °C Température à 20 cm °C Température à 50 cm °C Visibilité m État du sol   Ensoleillement min Rayonnement global W/m² Pression hPa Nébulosité Octas
20:18 21.1 °C 13.8 °C 63 % 8 km/h (10 km/h) 0 mm0 mm 22.5 °C 20.9 °C 19.4 °C 60000 m 0   6 min 16.4 W/m² 1023.7 hPa
20:12 21.4 °C 13.8 °C 62 % 9 km/h (13 km/h) 0 mm0 mm 22.5 °C 20.9 °C 19.5 °C 60000 m 0   6 min 21 W/m² 1023.7 hPa
20:06 21.7 °C 13.8 °C 61 % 10 km/h (13 km/h) 0 mm0 mm 22.5 °C 20.9 °C 19.5 °C 59950 m 0   6 min 26.2 W/m² 1023.8 hPa
20:00 22 °C 14.1 °C 61 % 9 km/h (12 km/h) 0 mm0 mm 22.5 °C 20.9 °C 19.5 °C 60000 m 0   6 min 31.2 W/m² 1023.8 hPa
19:54 22.1 °C 14 °C 60 % 9 km/h (14 km/h) 0 mm0 mm 22.5 °C 20.8 °C 19.5 °C 60000 m 0   6 min 36.8 W/m² 1023.8 hPa
19:48 22.4 °C 14 °C 59 % 10 km/h (15 km/h) 0 mm0 mm 22.5 °C 20.8 °C 19.5 °C 60000 m 0   6 min 42.4 W/m² 1023.8 hPa
19:42 22.6 °C 14.2 °C 59 % 10 km/h (15 km/h) 0 mm0 mm 22.4 °C 20.8 °C 19.5 °C 60000 m 0   6 min 48.5 W/m² 1023.6 hPa
19:36 22.6 °C 13.9 °C 58 % 11 km/h (15 km/h) 0 mm0 mm 22.4 °C 20.8 °C 19.5 °C 60000 m 0   6 min 54.3 W/m² 1023.6 hPa
19:30 22.7 °C 14 °C 58 % 12 km/h (17 km/h) 0 mm0 mm 22.4 °C 20.7 °C 19.5 °C 60000 m 0   6 min 59.7 W/m² 1023.6 hPa
19:24 22.8 °C 13.8 °C 57 % 12 km/h (17 km/h) 0 mm0 mm 22.4 °C 20.7 °C 19.5 °C 19850 m 0   6 min 65.4 W/m² 1023.6 hPa
19:18 23 °C 14 °C 57 % 13 km/h (17 km/h) 0 mm0 mm 22.4 °C 20.7 °C 19.5 °C 19850 m 0   6 min 71.3 W/m² 1023.5 hPa
19:12 23.3 °C 14 °C 56 % 13 km/h (18 km/h) 0 mm0 mm 22.4 °C 20.7 °C 19.5 °C 58450 m 0   6 min 77.4 W/m² 1023.5 hPa
19:06 23.7 °C 14.1 °C 55 % 12 km/h (18 km/h) 0 mm0 mm 22.3 °C 20.6 °C 19.5 °C 59830 m 0   6 min 84.1 W/m² 1023.5 hPa
19:00 24.3 °C 14.1 °C 53 % 10 km/h (15 km/h) 0 mm0 mm 22.3 °C 20.6 °C 19.5 °C 60000 m 0   6 min 90.9 W/m² 1023.6 hPa
18:54 24.4 °C 14.2 °C 53 % 8 km/h (13 km/h) 0 mm0 mm 22.3 °C 20.6 °C 19.5 °C 60000 m 0   6 min 97 W/m² 1023.6 hPa
18:48 24.3 °C 14.1 °C 53 % 7 km/h (13 km/h) 0 mm0 mm 22.3 °C 20.5 °C 19.5 °C 19520 m 0   6 min 103.9 W/m² 1023.7 hPa
18:42 24.3 °C 14.1 °C 53 % 7 km/h (11 km/h) 0 mm0 mm 22.2 °C 20.5 °C 19.5 °C 19520 m 0   6 min 110.3 W/m² 1023.6 hPa
18:36 24.2 °C 13.7 °C 52 % 8 km/h (13 km/h) 0 mm0 mm 22.2 °C 20.5 °C 19.5 °C 60000 m 0   6 min 116.4 W/m² 1023.7 hPa
18:30 24.4 °C 13.9 °C 52 % 10 km/h (16 km/h) 0 mm0 mm 22.2 °C 20.5 °C 19.5 °C 60000 m 0   6 min 122.3 W/m² 1023.7 hPa
18:24 24.7 °C 14.2 °C 52 % 9 km/h (16 km/h) 0 mm0 mm 22.1 °C 20.4 °C 19.5 °C 60000 m 0   6 min 128.2 W/m² 1023.7 hPa
18:18 24.3 °C 13.8 °C 52 % 9 km/h (16 km/h) 0 mm0 mm 22.1 °C 20.4 °C 19.5 °C 60000 m 0   6 min 135 W/m² 1023.8 hPa
18:12 24.4 °C 13.9 °C 52 % 9 km/h (18 km/h) 0 mm0 mm 22.1 °C 20.4 °C 19.5 °C 60000 m 0   6 min 140.4 W/m² 1023.8 hPa
18:06 24.3 °C 13.8 °C 52 % 8 km/h (18 km/h) 0 mm0 mm 22 °C 20.4 °C 19.5 °C 60000 m 0   6 min 146.9 W/m² 1023.8 hPa
18:00 24.6 °C 13.8 °C 51 % 7 km/h (15 km/h) 0 mm0 mm 22 °C 20.3 °C 19.5 °C 60000 m 0   6 min 153.1 W/m² 1023.8 hPa
17:54 24.8 °C 14.6 °C 53 % 6 km/h (15 km/h) 0 mm0 mm 21.9 °C 20.3 °C 19.5 °C 60000 m 0   6 min 158.9 W/m² 1023.9 hPa
17:48 24.4 °C 13.9 °C 52 % 8 km/h (17 km/h) 0 mm0 mm 21.9 °C 20.3 °C 19.5 °C 60000 m 0   6 min 165.6 W/m² 1023.9 hPa
17:42 24.6 °C 14.1 °C 52 % 10 km/h (17 km/h) 0 mm0 mm 21.9 °C 20.2 °C 19.5 °C 60000 m 0   6 min 171.2 W/m² 1024 hPa
17:36 24.6 °C 14.1 °C 52 % 10 km/h (17 km/h) 0 mm0 mm 21.8 °C 20.2 °C 19.5 °C 60000 m 0   6 min 176.5 W/m² 1024 hPa
17:30 24.5 °C 14.3 °C 53 % 12 km/h (17 km/h) 0 mm0 mm 21.7 °C 20.1 °C 19.5 °C 60000 m 0   6 min 181.7 W/m² 1024.1 hPa
17:24 24.3 °C 13.8 °C 52 % 11 km/h (16 km/h) 0 mm0 mm 21.7 °C 20.1 °C 19.5 °C 60000 m 0   6 min 187.4 W/m² 1024.1 hPa
17:18 24.8 °C 14 °C 51 % 13 km/h (18 km/h) 0 mm0 mm 21.6 °C 20.1 °C 19.5 °C 60000 m 0   6 min 192.8 W/m² 1024 hPa
17:12 24.8 °C 13.7 °C 50 % 14 km/h (20 km/h) 0 mm0 mm 21.6 °C 20.1 °C 19.5 °C 60000 m 0   6 min 196.4 W/m² 1024 hPa
17:06 24.7 °C 13.3 °C 49 % 11 km/h (20 km/h) 0 mm0 mm 21.5 °C 20.1 °C 19.5 °C 60000 m 0   6 min 201 W/m² 1024 hPa
17:00 25.3 °C 12.8 °C 46 % 9 km/h (20 km/h) 0 mm0 mm 21.5 °C 20 °C 19.5 °C 59390 m 0   6 min 204.7 W/m² 1024.1 hPa
16:54 25.3 °C 12.8 °C 46 % 11 km/h (17 km/h) 0 mm0 mm 21.4 °C 20 °C 19.5 °C 59390 m 0   6 min 209 W/m² 1024.1 hPa
16:48 25.2 °C 12.8 °C 46 % 11 km/h (17 km/h) 0 mm0 mm 21.4 °C 20 °C 19.5 °C 60000 m 0   6 min 213.5 W/m² 1024.3 hPa
16:42 25.3 °C 13.5 °C 48 % 8 km/h (17 km/h) 0 mm0 mm 21.3 °C 19.9 °C 19.5 °C 60000 m 0   6 min 218.2 W/m² 1024.2 hPa
16:36 24.3 °C 12.3 °C 47 % 4 km/h (8 km/h) 0 mm0 mm 21.2 °C 19.9 °C 19.5 °C 60000 m 0   6 min 222 W/m² 1024.4 hPa
16:30 24.5 °C 12.4 °C 47 % 5 km/h (8 km/h) 0 mm0 mm 21.2 °C 19.9 °C 19.5 °C 60000 m 0   6 min 225.5 W/m² 1024.4 hPa
16:24 25.1 °C 12.7 °C 46 % 6 km/h (10 km/h) 0 mm0 mm 21.2 °C 19.9 °C 19.5 °C 60000 m 0   6 min 229.4 W/m² 1024.4 hPa
16:18 25.5 °C 12.7 °C 45 % 8 km/h (14 km/h) 0 mm0 mm 21.1 °C 19.9 °C 19.5 °C 60000 m 0   6 min 232.9 W/m² 1024.3 hPa
16:12 25.2 °C 13.4 °C 48 % 6 km/h (13 km/h) 0 mm0 mm 21 °C 19.8 °C 19.5 °C 60000 m 0   6 min 236.7 W/m² 1024.3 hPa
16:06 24.7 °C 13.3 °C 49 % 5 km/h (15 km/h) 0 mm0 mm 20.9 °C 19.8 °C 19.5 °C 60000 m 0   6 min 239.8 W/m² 1024.5 hPa
16:00 24.4 °C 12.7 °C 48 % 7 km/h (15 km/h) 0 mm0 mm 20.9 °C 19.8 °C 19.5 °C 17480 m 0   6 min 243 W/m² 1024.5 hPa
15:54 24.2 °C 12.8 °C 49 % 8 km/h (16 km/h) 0 mm0 mm 20.8 °C 19.7 °C 19.5 °C 17290 m 0   6 min 246.1 W/m² 1024.6 hPa
15:48 24 °C 12.9 °C 50 % 10 km/h (16 km/h) 0 mm0 mm 20.8 °C 19.7 °C 19.5 °C 19750 m 0   6 min 249.1 W/m² 1024.7 hPa
15:42 23.5 °C 12.8 °C 51 % 11 km/h (17 km/h) 0 mm0 mm 20.7 °C 19.7 °C 19.5 °C 19780 m 0   6 min 251.7 W/m² 1024.9 hPa
15:36 23.7 °C 13 °C 51 % 10 km/h (16 km/h) 0 mm0 mm 20.6 °C 19.7 °C 19.5 °C 19990 m 0   6 min 254.1 W/m² 1025 hPa
15:30 23.5 °C 12.8 °C 51 % 12 km/h (22 km/h) 0 mm0 mm 20.6 °C 19.7 °C 19.5 °C 19760 m 0   6 min 257.1 W/m² 1025 hPa
15:24 23.6 °C 13.2 °C 52 % 15 km/h (23 km/h) 0 mm0 mm 20.5 °C 19.7 °C 19.5 °C 60000 m 0   6 min 261.4 W/m² 1025.1 hPa
15:18 23.8 °C 13.3 °C 52 % 17 km/h (23 km/h) 0 mm0 mm 20.5 °C 19.6 °C 19.5 °C 60000 m 0   6 min 282.5 W/m² 1025.1 hPa
15:12 24 °C 13.8 °C 53 % 12 km/h (21 km/h) 0 mm0 mm 20.4 °C 19.6 °C 19.5 °C 60000 m 0   4 min 240.4 W/m² 1025.2 hPa
15:06 24 °C 12.9 °C 50 % 11 km/h (20 km/h) 0 mm0 mm 20.4 °C 19.6 °C 19.5 °C 19570 m 0   4 min 194.6 W/m² 1025.2 hPa
15:00 23.8 °C 12.7 °C 50 % 10 km/h (20 km/h) 0 mm0 mm 20.3 °C 19.6 °C 19.5 °C 19520 m 0   6 min 262.2 W/m² 1025.2 hPa
14:54 24.2 °C 12.8 °C 49 % 10 km/h (22 km/h) 0 mm0 mm 20.2 °C 19.6 °C 19.5 °C 19950 m 0   6 min 264.1 W/m² 1025.2 hPa
14:48 24 °C 13.2 °C 51 % 10 km/h (19 km/h) 0 mm0 mm 20.1 °C 19.6 °C 19.5 °C 60000 m 0   6 min 281.5 W/m² 1025.3 hPa
14:42 23.9 °C 12.2 °C 48 % 9 km/h (19 km/h) 0 mm0 mm 20.1 °C 19.6 °C 19.5 °C 60000 m 0   6 min 278.1 W/m² 1025.3 hPa
14:36 23.9 °C 12.2 °C 48 % 6 km/h (13 km/h) 0 mm0 mm 20.1 °C 19.5 °C 19.5 °C 60000 m 0   6 min 276.1 W/m² 1025.5 hPa
14:30 23.5 °C 11.5 °C 47 % 6 km/h (13 km/h) 0 mm0 mm 20 °C 19.5 °C 19.5 °C 60000 m 0   6 min 276.6 W/m² 1025.5 hPa
14:24 23 °C 11.7 °C 49 % 8 km/h (15 km/h) 0 mm0 mm 20 °C 19.5 °C 19.5 °C 19770 m 0   6 min 276.4 W/m² 1025.6 hPa
14:18 22.8 °C 11.2 °C 48 % 8 km/h (15 km/h) 0 mm0 mm 19.9 °C 19.5 °C 19.5 °C 19770 m 0   6 min 278.8 W/m² 1025.8 hPa
14:12 23.1 °C 11.8 °C 49 % 8 km/h (14 km/h) 0 mm0 mm 19.8 °C 19.5 °C 19.5 °C 60000 m 0   6 min 290.3 W/m² 1025.7 hPa
14:06 23.1 °C 12.1 °C 50 % 6 km/h (14 km/h) 0 mm0 mm 19.8 °C 19.5 °C 19.5 °C 19840 m 0   6 min 312 W/m² 1025.8 hPa
14:00 22.7 °C 12.3 °C 52 % 7 km/h (14 km/h) 0 mm0 mm 19.8 °C 19.5 °C 19.5 °C 60000 m 0   5 min 229.9 W/m² 1025.9 hPa 6 Octas
13:54 22.6 °C 11.3 °C 49 % 7 km/h (14 km/h) 0 mm0 mm 19.7 °C 19.5 °C 19.5 °C 60000 m 0   4 min 208.8 W/m² 1025.9 hPa
13:48 22.2 °C 10.7 °C 48 % 6 km/h (15 km/h) 0 mm0 mm 19.7 °C 19.5 °C 19.5 °C 58930 m 0   2 min 172.7 W/m² 1026 hPa
13:42 23 °C 11.4 °C 48 % 8 km/h (17 km/h) 0 mm0 mm 19.6 °C 19.4 °C 19.5 °C 58930 m 0   6 min 243.1 W/m² 1025.8 hPa
13:36 22.5 °C 11.6 °C 50 % 7 km/h (16 km/h) 0 mm0 mm 19.6 °C 19.5 °C 19.5 °C 60000 m 0   6 min 273.5 W/m² 1026 hPa
13:30 22.1 °C 11.2 °C 50 % 7 km/h (14 km/h) 0 mm0 mm 19.5 °C 19.4 °C 19.5 °C 60000 m 0   6 min 248.5 W/m² 1026 hPa
13:24 22.1 °C 11.5 °C 51 % 8 km/h (17 km/h) 0 mm0 mm 19.5 °C 19.4 °C 19.5 °C 60000 m 0   6 min 261.8 W/m² 1026 hPa
13:18 22.3 °C 12.3 °C 53 % 8 km/h (17 km/h) 0 mm0 mm 19.5 °C 19.5 °C 19.5 °C 60000 m 0   6 min 265.4 W/m² 1026 hPa
13:12 22.2 °C 11.9 °C 52 % 5 km/h (13 km/h) 0 mm0 mm 19.4 °C 19.4 °C 19.5 °C 60000 m 0   6 min 260.7 W/m² 1026 hPa
13:06 22.2 °C 11.9 °C 52 % 6 km/h (15 km/h) 0 mm0 mm 19.4 °C 19.5 °C 19.5 °C 60000 m 0   6 min 256.2 W/m² 1026 hPa
13:00 22 °C 12.3 °C 54 % 6 km/h (12 km/h) 0 mm0 mm 19.3 °C 19.4 °C 19.5 °C 60000 m 0   6 min 256.5 W/m² 1026.1 hPa
12:54 21.6 °C 12.4 °C 56 % 6 km/h (14 km/h) 0 mm0 mm 19.3 °C 19.4 °C 19.5 °C 60000 m 0   6 min 254 W/m² 1026.2 hPa
12:48 21.5 °C 11.5 °C 53 % 8 km/h (18 km/h) 0 mm0 mm 19.3 °C 19.4 °C 19.5 °C 60000 m 0   6 min 253.3 W/m² 1026.3 hPa
12:42 21.5 °C 12.1 °C 55 % 8 km/h (18 km/h) 0 mm0 mm 19.3 °C 19.4 °C 19.5 °C 60000 m 0   6 min 251.5 W/m² 1026.2 hPa
12:36 21.6 °C 12.7 °C 57 % 10 km/h (18 km/h) 0 mm0 mm 19.2 °C 19.4 °C 19.5 °C 19590 m 0   6 min 253.2 W/m² 1026.2 hPa
12:30 21.3 °C 12.2 °C 56 % 10 km/h (17 km/h) 0 mm0 mm 19.2 °C 19.4 °C 19.5 °C 60000 m 0   6 min 252.6 W/m² 1026.3 hPa
12:24 20.9 °C 12.3 °C 58 % 10 km/h (18 km/h) 0 mm0 mm 19.2 °C 19.5 °C 19.5 °C 60000 m 0   6 min 247 W/m² 1026.3 hPa
12:18 20.8 °C 11.7 °C 56 % 6 km/h (18 km/h) 0 mm0 mm 19.2 °C 19.4 °C 19.5 °C 60000 m 0   6 min 240.1 W/m² 1026.3 hPa
12:12 20.9 °C 12.6 °C 59 % 8 km/h (19 km/h) 0 mm0 mm 19.2 °C 19.4 °C 19.5 °C 19910 m 0   6 min 233.6 W/m² 1026.4 hPa
12:06 20.9 °C 13.3 °C 62 % 9 km/h (19 km/h) 0 mm0 mm 19.1 °C 19.5 °C 19.5 °C 19560 m 0   6 min 228.5 W/m² 1026.3 hPa
12:00 20.4 °C 13.1 °C 63 % 10 km/h (17 km/h) 0 mm0 mm 19.1 °C 19.5 °C 19.5 °C 19520 m 0   6 min 226 W/m² 1026.4 hPa
11:54 20.4 °C 13.1 °C 63 % 11 km/h (17 km/h) 0 mm0 mm 19.1 °C 19.5 °C 19.5 °C 19930 m 0   6 min 219.7 W/m² 1026.4 hPa
11:48 20 °C 13 °C 64 % 9 km/h (16 km/h) 0 mm0 mm 19.1 °C 19.5 °C 19.5 °C 19930 m 0   6 min 216.2 W/m² 1026.3 hPa
11:42 20.1 °C 13.3 °C 65 % 8 km/h (16 km/h) 0 mm0 mm 19.1 °C 19.5 °C 19.5 °C 59800 m 0   6 min 210.9 W/m² 1026.2 hPa
11:36 20 °C 13.5 °C 66 % 9 km/h (15 km/h) 0 mm0 mm 19.1 °C 19.5 °C 19.5 °C 19680 m 0   6 min 206.8 W/m² 1026.1 hPa
11:30 19.4 °C 13.1 °C 67 % 10 km/h (17 km/h) 0 mm0 mm 19.1 °C 19.5 °C 19.5 °C 59200 m 0   6 min 202.7 W/m² 1026.1 hPa
11:24 19.5 °C 13.2 °C 67 % 10 km/h (17 km/h) 0 mm0 mm 19.1 °C 19.5 °C 19.5 °C 59070 m 0   6 min 199.2 W/m² 1026.1 hPa
11:18 19.6 °C 14 °C 70 % 10 km/h (17 km/h) 0 mm0 mm 19.1 °C 19.5 °C 19.5 °C 19850 m 0   6 min 195.1 W/m² 1026.1 hPa
11:12 19 °C 13.6 °C 71 % 10 km/h (15 km/h) 0 mm0 mm 19.1 °C 19.5 °C 19.5 °C 57320 m 0   6 min 166.4 W/m² 1026 hPa
11:06 18.7 °C 13.1 °C 70 % 10 km/h (15 km/h) 0 mm0 mm 19.1 °C 19.6 °C 19.5 °C 54300 m 0   5 min 174.2 W/m² 1026 hPa
11:00 18.2 °C 13.1 °C 72 % 9 km/h (13 km/h) 0 mm0 mm 19.1 °C 19.5 °C 19.5 °C 54440 m 0   4 min 128.7 W/m² 1026 hPa
10:54 17.9 °C 13 °C 73 % 9 km/h (14 km/h) 0 mm0 mm 19.1 °C 19.6 °C 19.5 °C 58580 m 0   1 min 93.3 W/m² 1026.1 hPa
10:48 18 °C 13.1 °C 73 % 9 km/h (14 km/h) 0 mm0 mm 19.1 °C 19.6 °C 19.5 °C 58620 m 0   1 min 98.6 W/m² 1026.1 hPa
10:42 18 °C 13.1 °C 73 % 8 km/h (14 km/h) 0 mm0 mm 19.1 °C 19.6 °C 19.5 °C 57760 m 0   1 min 92.6 W/m² 1026 hPa
10:36 18 °C 13.3 °C 74 % 9 km/h (14 km/h) 0 mm0 mm 19.1 °C 19.6 °C 19.5 °C 57980 m 0   2 min 108.5 W/m² 1026 hPa
10:30 17.9 °C 13.6 °C 76 % 7 km/h (14 km/h) 0 mm0 mm 19.1 °C 19.6 °C 19.5 °C 57930 m 0   2 min 99.5 W/m² 1026 hPa
10:24 17.9 °C 13.4 °C 75 % 6 km/h (10 km/h) 0 mm0 mm 19.1 °C 19.6 °C 19.5 °C 58180 m 0   6 min 150 W/m² 1025.9 hPa
10:18 17.7 °C 13.6 °C 77 % 8 km/h (13 km/h) 0 mm0 mm 19.1 °C 19.6 °C 19.5 °C 56200 m 0   5 min 119.1 W/m² 1025.9 hPa
10:12 17.7 °C 14 °C 79 % 8 km/h (13 km/h) 0 mm0 mm 19.1 °C 19.6 °C 19.5 °C 54840 m 0   5 min 126.8 W/m² 1025.8 hPa
10:06 17 °C 13.7 °C 81 % 8 km/h (11 km/h) 0 mm0 mm 19.1 °C 19.6 °C 19.5 °C 54650 m 0   1 min 69 W/m² 1025.9 hPa
10:00 17 °C 13.7 °C 81 % 8 km/h (13 km/h) 0 mm0 mm 19.1 °C 19.7 °C 19.5 °C 53540 m 0   0 min 58.4 W/m² 1025.8 hPa
09:54 16.9 °C 13.6 °C 81 % 9 km/h (13 km/h) 0 mm0 mm 19.1 °C 19.7 °C 19.5 °C 19870 m 0   0 min 44.1 W/m² 1025.8 hPa
09:48 17.3 °C 13.8 °C 80 % 9 km/h (13 km/h) 0 mm0 mm 19.2 °C 19.7 °C 19.5 °C 19720 m 0   4 min 91.3 W/m² 1025.8 hPa
09:42 16.9 °C 13.8 °C 82 % 10 km/h (15 km/h) 0 mm0 mm 19.2 °C 19.7 °C 19.5 °C 48720 m 0   5 min 98.6 W/m² 1025.6 hPa
09:36 16.8 °C 14.1 °C 84 % 10 km/h (15 km/h) 0 mm0 mm 19.2 °C 19.7 °C 19.5 °C 48300 m 0   6 min 95.5 W/m² 1025.5 hPa
09:30 16.7 °C 13.8 °C 83 % 9 km/h (12 km/h) 0 mm0 mm 19.2 °C 19.7 °C 19.5 °C 19970 m 0   6 min 82.9 W/m² 1025.5 hPa
09:24 16.9 °C 14.2 °C 84 % 8 km/h (10 km/h) 0 mm0 mm 19.2 °C 19.7 °C 19.5 °C 18750 m 0   6 min 77.7 W/m² 1025.5 hPa
09:18 16.9 °C 14.4 °C 85 % 6 km/h (9 km/h) 0 mm0 mm 19.2 °C 19.7 °C 19.5 °C 17790 m 0   6 min 78.3 W/m² 1025.6 hPa
09:12 16.6 °C 14.4 °C 87 % 6 km/h (8 km/h) 0 mm0 mm 19.2 °C 19.8 °C 19.5 °C 19210 m 0   6 min 71.9 W/m² 1025.5 hPa
09:06 16.1 °C 14.5 °C 90 % 5 km/h (8 km/h) 0 mm0 mm 19.2 °C 19.8 °C 19.5 °C 19970 m 0   6 min 64.8 W/m² 1025.6 hPa
09:00 15.5 °C 14.4 °C 93 % 5 km/h (8 km/h) 0 mm0 mm 19.2 °C 19.8 °C 19.5 °C 19680 m 0   6 min 53.5 W/m² 1025.5 hPa
08:54 15 °C 14 °C 94 % 6 km/h (9 km/h) 0 mm0 mm 19.2 °C 19.8 °C 19.5 °C 19470 m 0   2 min 30.4 W/m² 1025.4 hPa
08:48 14.9 °C 14.1 °C 95 % 7 km/h (9 km/h) 0 mm0 mm 19.2 °C 19.8 °C 19.5 °C 19780 m 0   1 min 23.6 W/m² 1025.3 hPa
08:42 14.8 °C 14.2 °C 96 % 8 km/h (10 km/h) 0 mm0 mm 19.3 °C 19.8 °C 19.5 °C 19960 m 0   6 min 38.4 W/m² 1025.3 hPa
08:36 14.4 °C 13.9 °C 97 % 6 km/h (9 km/h) 0 mm0 mm 19.3 °C 19.8 °C 19.5 °C 19650 m 0   2 min 22.2 W/m² 1025.4 hPa
08:30 14.3 °C 13.8 °C 97 % 5 km/h (8 km/h) 0 mm0 mm 19.3 °C 19.9 °C 19.5 °C 19300 m 0   0 min 17.1 W/m² 1025.4 hPa
08:24 14.2 °C 13.7 °C 97 % 4 km/h (6 km/h) 0 mm0 mm 19.3 °C 19.9 °C 19.5 °C 19550 m 0   0 min 12.7 W/m² 1025.4 hPa
08:18 14.2 °C 13.7 °C 97 % 6 km/h (9 km/h) 0 mm0 mm 19.4 °C 19.9 °C 19.5 °C 19920 m 0   0 min 9.3 W/m² 1025.4 hPa
08:12 14.1 °C 13.6 °C 97 % 7 km/h (9 km/h) 0 mm0 mm 19.4 °C 19.9 °C 19.5 °C 19920 m 0   0 min 4 W/m² 1025.3 hPa
08:06 14 °C 13.5 °C 97 % 6 km/h (8 km/h) 0 mm0 mm 19.4 °C 19.9 °C 19.5 °C 36090 m 0   0 min 0 W/m² 1025.2 hPa
08:00 13.9 °C 13.6 °C 98 % 4 km/h (6 km/h) 0 mm0 mm 19.5 °C 19.9 °C 19.5 °C 19740 m 0   0 min 0 W/m² 1025.2 hPa 8 Octas
07:54 13.8 °C 13.5 °C 98 % 3 km/h (4 km/h) 0 mm0 mm 19.5 °C 19.9 °C 19.5 °C 18880 m 0   0 min 0 W/m² 1025.2 hPa
07:48 13.8 °C 13.5 °C 98 % 4 km/h (8 km/h) 0 mm0 mm 19.5 °C 19.9 °C 19.5 °C 18730 m 0   0 min 0 W/m² 1025.3 hPa
07:42 13.8 °C 13.5 °C 98 % 5 km/h (8 km/h) 0 mm0 mm 19.5 °C 20 °C 19.5 °C 19820 m 0   0 min 0 W/m² 1025.2 hPa
07:36 13.8 °C 13.6 °C 99 % 5 km/h (6 km/h) 0 mm0 mm 19.5 °C 20 °C 19.5 °C 35760 m 0   0 min 0 W/m² 1025.1 hPa
07:30 13.5 °C 13.2 °C 98 % 4 km/h (6 km/h) 0 mm0 mm 19.6 °C 20 °C 19.5 °C 19530 m 0   0 min 0 W/m² 1025.3 hPa
07:24 13.3 °C 13 °C 98 % 3 km/h (5 km/h) 0 mm0 mm 19.6 °C 20 °C 19.5 °C 18960 m 0   0 min 0 W/m² 1025.3 hPa
07:18 13.3 °C 13 °C 98 % 4 km/h (7 km/h) 0 mm0 mm 19.6 °C 20 °C 19.5 °C 19700 m 0   0 min 0 W/m² 1025.2 hPa
07:12 13.2 °C 12.9 °C 98 % 6 km/h (8 km/h) 0 mm0 mm 19.6 °C 20 °C 19.5 °C 19440 m 0   0 min 0 W/m² 1025.2 hPa
07:06 13.1 °C 12.8 °C 98 % 7 km/h (8 km/h) 0 mm0 mm 19.6 °C 20 °C 19.5 °C 18880 m 0   0 min 0 W/m² 1025.1 hPa
07:00 13.2 °C 12.9 °C 98 % 6 km/h (8 km/h) 0 mm0 mm 19.7 °C 20 °C 19.5 °C 19490 m 0   0 min 0 W/m² 1025.1 hPa 7 Octas
06:54 13 °C 12.5 °C 97 % 5 km/h (6 km/h) 0 mm0 mm 19.7 °C 20.1 °C 19.5 °C 18960 m 0   0 min 0 W/m² 1025.1 hPa
06:48 12.8 °C 12.3 °C 97 % 4 km/h (5 km/h) 0 mm0 mm 19.7 °C 20.1 °C 19.5 °C 18570 m 0   0 min 0 W/m² 1025.2 hPa
06:42 12.8 °C 12.2 °C 96 % 3 km/h (5 km/h) 0 mm0 mm 19.7 °C 20.1 °C 19.5 °C 18500 m 0   0 min 0 W/m² 1025.1 hPa
06:36 13.1 °C 12.6 °C 97 % 2 km/h (4 km/h) 0 mm0 mm 19.7 °C 20.1 °C 19.5 °C 17980 m 0   0 min 0 W/m² 1025.1 hPa
06:30 13.5 °C 13.2 °C 98 % 0 km/h (2 km/h) 0 mm0 mm 19.7 °C 20.1 °C 19.5 °C 19160 m 0   0 min 0 W/m² 1025.1 hPa
06:24 13.4 °C 12.9 °C 97 % 0 km/h (2 km/h) 0 mm0 mm 19.8 °C 20.1 °C 19.5 °C 19660 m 0   0 min 0 W/m² 1025 hPa
06:18 13.4 °C 12.9 °C 97 % 0 km/h (2 km/h) 0 mm0 mm 19.8 °C 20.1 °C 19.5 °C 19920 m 0   0 min 0 W/m² 1025 hPa
06:12 13.4 °C 12.9 °C 97 % 0 km/h (3 km/h) 0 mm0 mm 19.8 °C 20.2 °C 19.5 °C 19920 m 0   0 min 0 W/m² 1025 hPa
06:06 13.5 °C 13 °C 97 % 3 km/h (5 km/h) 0 mm0 mm 19.9 °C 20.2 °C 19.5 °C 41000 m 0   0 min 0 W/m² 1025 hPa
06:00 13.6 °C 13.1 °C 97 % 5 km/h (6 km/h) 0 mm0 mm 19.8 °C 20.2 °C 19.5 °C 44780 m 0   0 min 0 W/m² 1024.9 hPa 8 Octas
05:54 13.6 °C 13.1 °C 97 % 6 km/h (7 km/h) 0 mm0 mm 19.9 °C 20.2 °C 19.5 °C 41860 m 0   0 min 0 W/m² 1024.9 hPa
05:48 13.6 °C 13.3 °C 98 % 5 km/h (7 km/h) 0 mm0 mm 19.9 °C 20.2 °C 19.5 °C 43940 m 0   0 min 0 W/m² 1024.9 hPa
05:42 13.3 °C 12.8 °C 97 % 3 km/h (4 km/h) 0 mm0 mm 19.9 °C 20.2 °C 19.5 °C 44300 m 0   0 min 0 W/m² 1025 hPa
05:36 13.2 °C 12.7 °C 97 % 3 km/h (4 km/h) 0 mm0 mm 19.9 °C 20.2 °C 19.5 °C 19750 m 0   0 min 0 W/m² 1025 hPa
05:30 13.3 °C 12.8 °C 97 % 4 km/h (5 km/h) 0 mm0 mm 20 °C 20.2 °C 19.5 °C 19370 m 0   0 min 0 W/m² 1025 hPa
05:24 13.4 °C 12.9 °C 97 % 3 km/h (5 km/h) 0 mm0 mm 20 °C 20.2 °C 19.5 °C 19710 m 0   0 min 0 W/m² 1025 hPa
05:18 13.4 °C 12.9 °C 97 % 3 km/h (3 km/h) 0 mm0 mm 20 °C 20.3 °C 19.5 °C 19890 m 0   0 min 0 W/m² 1024.8 hPa
05:12 13.4 °C 12.9 °C 97 % 2 km/h (3 km/h) 0 mm0 mm 20 °C 20.3 °C 19.5 °C 19990 m 0   0 min 0 W/m² 1024.8 hPa
05:06 13.3 °C 12.7 °C 96 % 3 km/h (4 km/h) 0 mm0 mm 20.1 °C 20.3 °C 19.5 °C 19850 m 0   0 min 0 W/m² 1024.9 hPa
05:00 13.4 °C 12.8 °C 96 % 4 km/h (6 km/h) 0 mm0 mm 20.1 °C 20.3 °C 19.5 °C 19410 m 0   0 min 0 W/m² 1024.7 hPa
04:54 13.5 °C 12.9 °C 96 % 6 km/h (6 km/h) 0 mm0 mm 20.1 °C 20.3 °C 19.5 °C 19760 m 0   0 min 0 W/m² 1024.8 hPa
04:48 13.8 °C 13.2 °C 96 % 5 km/h (6 km/h) 0 mm0 mm 20.1 °C 20.4 °C 19.5 °C 19410 m 0   0 min 0 W/m² 1024.7 hPa
04:42 14.1 °C 13.6 °C 97 % 4 km/h (5 km/h) 0 mm0 mm 20.2 °C 20.3 °C 19.5 °C 19880 m 0   0 min 0 W/m² 1024.6 hPa
04:36 14.1 °C 13.6 °C 97 % 4 km/h (5 km/h) 0 mm0 mm 20.1 °C 20.3 °C 19.5 °C 35470 m 0   0 min 0 W/m² 1024.6 hPa
04:30 14 °C 13.4 °C 96 % 4 km/h (5 km/h) 0 mm0 mm 20.2 °C 20.4 °C 19.5 °C 19800 m 0   0 min 0 W/m² 1024.6 hPa
04:24 13.9 °C 13.1 °C 95 % 4 km/h (5 km/h) 0 mm0 mm 20.2 °C 20.4 °C 19.5 °C 38280 m 0   0 min 0 W/m² 1024.7 hPa
04:18 14.1 °C 13.3 °C 95 % 3 km/h (4 km/h) 0 mm0 mm 20.2 °C 20.4 °C 19.5 °C 38770 m 0   0 min 0 W/m² 1024.6 hPa
04:12 14.1 °C 13.3 °C 95 % 3 km/h (4 km/h) 0 mm0 mm 20.2 °C 20.4 °C 19.5 °C 39250 m 0   0 min 0 W/m² 1024.6 hPa
04:06 13.9 °C 12.8 °C 93 % 4 km/h (4 km/h) 0 mm0 mm 20.2 °C 20.4 °C 19.5 °C 41140 m 0   0 min 0 W/m² 1024.5 hPa
04:00 14.1 °C 13 °C 93 % 4 km/h (5 km/h) 0 mm0 mm 20.3 °C 20.4 °C 19.5 °C 41600 m 0   0 min 0 W/m² 1024.5 hPa 8 Octas
03:54 14.5 °C 13.4 °C 93 % 5 km/h (7 km/h) 0 mm0 mm 20.3 °C 20.4 °C 19.5 °C 19960 m 0   0 min 0 W/m² 1024.5 hPa
03:48 14.5 °C 13.4 °C 93 % 6 km/h (8 km/h) 0 mm0 mm 20.3 °C 20.4 °C 19.4 °C 42170 m 0   0 min 0 W/m² 1024.4 hPa
03:42 14.5 °C 13.4 °C 93 % 5 km/h (8 km/h) 0 mm0 mm 20.4 °C 20.5 °C 19.5 °C 42700 m 0   0 min 0 W/m² 1024.4 hPa
03:36 14.6 °C 13.5 °C 93 % 4 km/h (5 km/h) 0 mm0 mm 20.4 °C 20.5 °C 19.5 °C 42890 m 0   0 min 0 W/m² 1024.4 hPa
03:30 14.5 °C 13 °C 91 % 3 km/h (4 km/h) 0 mm0 mm 20.4 °C 20.5 °C 19.5 °C 42560 m 0   0 min 0 W/m² 1024.4 hPa
03:24 14.7 °C 13.2 °C 91 % 3 km/h (5 km/h) 0 mm0 mm 20.4 °C 20.5 °C 19.4 °C 43100 m 0   0 min 0 W/m² 1024.3 hPa
03:18 15 °C 13.5 °C 91 % 3 km/h (5 km/h) 0 mm0 mm 20.5 °C 20.5 °C 19.5 °C 44180 m 0   0 min 0 W/m² 1024.4 hPa
03:12 15.1 °C 13.5 °C 90 % 2 km/h (4 km/h) 0 mm0 mm 20.4 °C 20.5 °C 19.5 °C 44990 m 0   0 min 0 W/m² 1024.4 hPa
03:06 15.2 °C 13.2 °C 88 % 4 km/h (6 km/h) 0 mm0 mm 20.5 °C 20.5 °C 19.5 °C 45850 m 0   0 min 0 W/m² 1024.3 hPa
03:00 15.3 °C 13.3 °C 88 % 5 km/h (7 km/h) 0 mm0 mm 20.5 °C 20.5 °C 19.5 °C 46610 m 0   0 min 0 W/m² 1024.3 hPa 8 Octas
02:54 15.3 °C 13.3 °C 88 % 5 km/h (7 km/h) 0 mm0 mm 20.5 °C 20.5 °C 19.5 °C 46570 m 0   0 min 0 W/m² 1024.3 hPa
02:48 15.4 °C 13.4 °C 88 % 4 km/h (6 km/h) 0 mm0 mm 20.5 °C 20.5 °C 19.4 °C 46150 m 0   0 min 0 W/m² 1024.3 hPa
02:42 15.4 °C 13.4 °C 88 % 4 km/h (7 km/h) 0 mm0 mm 20.5 °C 20.6 °C 19.5 °C 45980 m 0   0 min 0 W/m² 1024.2 hPa
02:36 15.4 °C 13.4 °C 88 % 5 km/h (9 km/h) 0 mm0 mm 20.6 °C 20.5 °C 19.5 °C 45990 m 0   0 min 0 W/m² 1024.2 hPa
02:30 15.5 °C 13.3 °C 87 % 6 km/h (9 km/h) 0 mm0 mm 20.6 °C 20.6 °C 19.5 °C 46910 m 0   0 min 0 W/m² 1024.2 hPa
02:24 15.6 °C 13.4 °C 87 % 6 km/h (9 km/h) 0 mm0 mm 20.6 °C 20.6 °C 19.5 °C 46950 m 0   0 min 0 W/m² 1024.2 hPa
02:18 15.7 °C 13.5 °C 87 % 6 km/h (8 km/h) 0 mm0 mm 20.6 °C 20.6 °C 19.4 °C 47440 m 0   0 min 0 W/m² 1024.1 hPa
02:12 15.9 °C 13.7 °C 87 % 6 km/h (9 km/h) 0 mm0 mm 20.6 °C 20.6 °C 19.4 °C 47730 m 0   0 min 0 W/m² 1024.1 hPa
02:06 15.9 °C 13.7 °C 87 % 5 km/h (8 km/h) 0 mm0 mm 20.7 °C 20.6 °C 19.4 °C 48110 m 0   0 min 0 W/m² 1024.1 hPa
02:00 16 °C 13.8 °C 87 % 4 km/h (9 km/h) 0 mm0 mm 20.7 °C 20.6 °C 19.4 °C 48270 m 0   0 min 0 W/m² 1024 hPa 8 Octas
01:54 16.1 °C 13.9 °C 87 % 5 km/h (10 km/h) 0 mm0 mm 20.7 °C 20.6 °C 19.4 °C 48320 m 0   0 min 0 W/m² 1023.9 hPa
01:48 16.1 °C 13.9 °C 87 % 7 km/h (10 km/h) 0 mm0 mm 20.7 °C 20.6 °C 19.4 °C 48760 m 0   0 min 0 W/m² 1023.6 hPa
01:42 16.2 °C 14 °C 87 % 5 km/h (9 km/h) 0 mm0 mm 20.7 °C 20.6 °C 19.4 °C 49100 m 0   0 min 0 W/m² 1023.7 hPa
01:36 16.2 °C 14.2 °C 88 % 6 km/h (12 km/h) 0 mm0 mm 20.8 °C 20.6 °C 19.5 °C 49370 m 0   0 min 0 W/m² 1023.8 hPa
01:30 16.3 °C 14.3 °C 88 % 6 km/h (12 km/h) 0 mm0 mm 20.8 °C 20.6 °C 19.4 °C 49610 m 0   0 min 0 W/m² 1023.6 hPa
01:24 16.3 °C 14.5 °C 89 % 5 km/h (9 km/h) 0 mm0 mm 20.8 °C 20.6 °C 19.4 °C 50470 m 0   0 min 0 W/m² 1023.6 hPa
01:18 16.3 °C 14.5 °C 89 % 5 km/h (8 km/h) 0 mm0 mm 20.8 °C 20.6 °C 19.4 °C 51180 m 0   0 min 0 W/m² 1023.6 hPa
01:12 16.4 °C 14.8 °C 90 % 6 km/h (11 km/h) 0 mm0 mm 20.8 °C 20.7 °C 19.4 °C 2970 m 0   0 min 0 W/m² 1023.5 hPa
01:06 16.4 °C 14.9 °C 91 % 8 km/h (12 km/h) 0 mm0 mm 20.9 °C 20.7 °C 19.5 °C 2890 m 0   0 min 0 W/m² 1023.6 hPa
01:00 16.5 °C 15 °C 91 % 8 km/h (12 km/h) 0 mm0 mm 20.9 °C 20.7 °C 19.5 °C 51330 m 0   0 min 0 W/m² 1023.6 hPa 8 Octas
00:54 16.5 °C 15 °C 91 % 9 km/h (14 km/h) 0 mm0 mm 20.9 °C 20.7 °C 19.5 °C 50790 m 0   0 min 0 W/m² 1023.4 hPa
00:48 16.6 °C 15.1 °C 91 % 11 km/h (15 km/h) 0 mm0 mm 20.9 °C 20.7 °C 19.4 °C 50640 m 0   0 min 0 W/m² 1023.5 hPa
00:42 16.7 °C 15.1 °C 90 % 12 km/h (16 km/h) 0 mm0 mm 20.9 °C 20.7 °C 19.4 °C 50200 m 0   0 min 0 W/m² 1023.5 hPa
00:36 16.8 °C 15.1 °C 90 % 11 km/h (16 km/h) 0 mm0 mm 21 °C 20.7 °C 19.4 °C 50170 m 0   0 min 0 W/m² 1023.6 hPa
00:30 16.8 °C 15.1 °C 90 % 10 km/h (18 km/h) 0 mm0 mm 21 °C 20.7 °C 19.5 °C 51320 m 0   0 min 0 W/m² 1023.4 hPa
00:24 16.9 °C 15.2 °C 90 % 10 km/h (15 km/h) 0 mm0 mm 21 °C 20.7 °C 19.4 °C 52990 m 0   0 min 0 W/m² 1023.5 hPa
00:18 16.9 °C 15.1 °C 89 % 10 km/h (14 km/h) 0 mm0 mm 21 °C 20.7 °C 19.4 °C 54240 m 0   0 min 0 W/m² 1023.5 hPa
00:12 17.1 °C 15.3 °C 89 % 9 km/h (14 km/h) 0 mm0 mm 21 °C 20.7 °C 19.4 °C 54240 m 0   0 min 0 W/m² 1023.4 hPa
00:06 17.1 °C 15.1 °C 88 % 10 km/h (17 km/h) 0 mm0 mm 21 °C 20.7 °C 19.4 °C 55480 m 0   0 min 0 W/m² 1023.5 hPa
00:00 17.2 °C 15.2 °C 88 % 10 km/h (17 km/h) 0 mm0 mm 21.1 °C 20.7 °C 19.4 °C 56560 m 0   0 min 0 W/m² 1023.5 hPa 8 Octas

Données via Météo-France

Relevés météo à Quimper

Cette page rassemble les observations de la station de Quimper : température, humidité, vent, précipitations et pression atmosphérique. Les graphiques facilitent le suivi de la journée, tandis que le tableau donne accès aux mesures horaires et infra-horaires disponibles.

Pour replacer ces mesures dans leur contexte, consultez la climatologie de Quimper ainsi que ses normales et records. Retrouvez aussi la carte des observations météo en temps réel.